PATL/TLJ METAR and TAF weather

Enter ICAO airport designator
Station Type Date Time Source
PATL METAR 2019/10/21 02:55 UTC NOAA

PATL 210255Z AUTO 00000KT 10SM -RA OVC022 00/M02 A2966 RMK AO2 RAB0209 SLP059 P0000 60000 T10051022 57003


Station Type Date Time Source
PATL Decoded METAR 2019/10/21 02:55 UTC NOAA

Takotna, Tatalina LRRS Airport, AK, United States (PATL) 62-54N 155-59W
Oct 20, 2019 - 10:55 PM EDT / 2019.10.21 0255 UTC
Wind: Calm:0
Visibility: 10 mile(s):0
Sky conditions: overcast
Weather: light rain
Precipitation last hour: A trace
Temperature: 31.1 F (-0.5 C)
Dew Point: 28.0 F (-2.2 C)
Relative Humidity: 88%
Pressure (altimeter): 29.66 in. Hg (1004 hPa)
Pressure tendency: 0.01 inches (0.3 hPa) lower than three hours ago
ob: PATL 210255Z AUTO 00000KT 10SM -RA OVC022 00/M02 A2966 RMK AO2 RAB0209 SLP059 P0000 60000 T10051022 57003
cycle: 3

Station Type Date Time Source
PATL TAF 2012/01/12 14:06 UTC NOAA

TAF PATL 1214/1320 VRB06KT 9999 FEW050 SCT110 QNH2998INS TM26/1300Z TM32/1315Z

Example: see airport list